Time;durP1;ratioP1;P1;durP2;ratioP2;P2;SDS_P1;SDS_P2;PMS_P1;PMS_P2;Temp;Humidity;BMP_temperature;BMP_pressure;BME280_temperature;BME280_humidity;BME280_pressure;Samples;Min_cycle;Max_cycle;Signal;HPM_P1;HPM_P2
2022/09/17 00:00:26;;;;;;;9.93;9.63;;;9.50;99.90;;;;;;5093286;28;20261;-81
2022/09/17 00:02:55;;;;;;;10.00;9.70;;;9.50;99.90;;;;;;5101498;28;20559;-81
2022/09/17 00:05:26;;;;;;;9.83;9.53;;;9.50;99.90;;;;;;5100745;28;20302;-81
2022/09/17 00:07:57;;;;;;;9.80;9.50;;;9.50;99.90;;;;;;5101493;28;20243;-80
2022/09/17 00:10:25;;;;;;;9.73;9.43;;;9.40;99.90;;;;;;5101702;28;20240;-80
2022/09/17 00:12:53;;;;;;;9.83;9.53;;;9.40;99.90;;;;;;5100771;28;20229;-80
2022/09/17 00:15:22;;;;;;;10.00;9.70;;;9.40;99.90;;;;;;5100524;28;20236;-80
2022/09/17 00:17:57;;;;;;;9.90;9.60;;;9.40;99.90;;;;;;5100809;28;20320;-80
2022/09/17 00:20:32;;;;;;;9.90;9.60;;;9.30;99.90;;;;;;5100845;28;20229;-80
2022/09/17 00:23:02;;;;;;;9.90;9.60;;;9.30;99.90;;;;;;5100763;28;20251;-80
2022/09/17 00:25:30;;;;;;;10.00;9.70;;;9.30;99.90;;;;;;5099711;28;20229;-80
2022/09/17 00:28:00;;;;;;;9.70;9.40;;;9.30;99.90;;;;;;5100880;28;20234;-80
2022/09/17 00:30:29;;;;;;;9.80;9.50;;;9.30;99.90;;;;;;5100725;28;20290;-80
2022/09/17 00:32:58;;;;;;;9.63;9.33;;;9.30;99.90;;;;;;5100674;28;20234;-81
2022/09/17 00:35:27;;;;;;;9.60;9.30;;;9.30;99.90;;;;;;5100653;28;20252;-80
2022/09/17 00:37:56;;;;;;;10.00;9.70;;;9.30;99.90;;;;;;5101625;28;20317;-81
2022/09/17 00:40:38;;;;;;;9.80;9.50;;;9.30;99.90;;;;;;5101355;28;20269;-81
2022/09/17 00:43:13;;;;;;;10.13;9.83;;;9.30;99.90;;;;;;5102015;28;20217;-80
2022/09/17 00:45:42;;;;;;;10.07;9.77;;;9.20;99.90;;;;;;5101230;28;20209;-80
2022/09/17 00:48:12;;;;;;;10.10;9.80;;;9.20;99.90;;;;;;5100733;28;20229;-81
2022/09/17 00:50:43;;;;;;;10.23;9.93;;;9.20;99.90;;;;;;5100777;28;20229;-80
2022/09/17 00:53:20;;;;;;;10.00;9.70;;;9.20;99.90;;;;;;5101459;28;20229;-81
2022/09/17 00:56:01;;;;;;;9.93;9.63;;;9.20;99.90;;;;;;5100702;28;20276;-80
2022/09/17 00:58:30;;;;;;;9.70;9.40;;;9.20;99.90;;;;;;5101095;28;20256;-81
2022/09/17 01:00:58;;;;;;;10.17;9.87;;;9.20;99.90;;;;;;5101762;28;20340;-80
2022/09/17 01:03:26;;;;;;;9.87;9.57;;;9.30;99.90;;;;;;5100956;28;20229;-81
2022/09/17 01:06:05;;;;;;;9.60;9.30;;;9.30;99.90;;;;;;5099687;28;20320;-80
2022/09/17 01:08:44;;;;;;;9.50;9.20;;;9.30;99.90;;;;;;5102858;28;20272;-81
2022/09/17 01:11:47;;;;;;;9.63;9.33;;;9.30;99.90;;;;;;5108758;28;20598;-80
2022/09/17 01:14:35;;;;;;;9.80;9.50;;;9.40;99.90;;;;;;5112800;28;20299;-80
2022/09/17 01:17:13;;;;;;;10.00;9.70;;;9.30;99.90;;;;;;5108234;28;20256;-81
2022/09/17 01:20:28;;;;;;;10.07;9.77;;;9.30;99.90;;;;;;5106009;28;20336;-81
2022/09/17 01:23:16;;;;;;;10.17;9.87;;;9.30;99.90;;;;;;5104952;28;20294;-79
2022/09/17 01:26:00;;;;;;;9.90;9.60;;;9.30;99.90;;;;;;5103987;28;20240;-80
2022/09/17 01:28:42;;;;;;;9.93;9.63;;;9.30;99.90;;;;;;5104339;28;20237;-81
2022/09/17 01:31:35;;;;;;;10.03;9.73;;;9.30;99.90;;;;;;5104568;28;20241;-80
2022/09/17 01:34:14;;;;;;;9.97;9.67;;;9.30;99.90;;;;;;5104375;28;20307;-80
2022/09/17 01:37:03;;;;;;;10.00;9.70;;;9.30;99.90;;;;;;5126336;22;20229;-81
2022/09/17 01:39:40;;;;;;;10.07;9.77;;;9.30;99.90;;;;;;5079620;28;20241;-80
2022/09/17 01:42:16;;;;;;;9.87;9.57;;;9.30;99.90;;;;;;5073164;28;20237;-80
2022/09/17 01:44:55;;;;;;;10.10;9.80;;;9.20;99.90;;;;;;5083810;28;20225;-80
2022/09/17 01:47:34;;;;;;;10.40;10.10;;;9.20;99.90;;;;;;5092497;28;20265;-80
2022/09/17 01:50:08;;;;;;;9.90;9.60;;;9.30;99.90;;;;;;5090038;28;20218;-80
2022/09/17 01:52:40;;;;;;;10.10;9.80;;;9.20;99.90;;;;;;5089385;28;20234;-80
2022/09/17 01:55:14;;;;;;;9.90;9.60;;;9.20;99.90;;;;;;5086723;28;20230;-81
2022/09/17 01:57:49;;;;;;;10.00;9.70;;;9.20;99.90;;;;;;5084915;28;20253;-80
2022/09/17 02:00:19;;;;;;;10.03;9.73;;;9.20;99.90;;;;;;5084361;28;20230;-80
2022/09/17 02:02:57;;;;;;;10.10;9.80;;;9.20;99.90;;;;;;5083420;28;20265;-81
2022/09/17 02:05:30;;;;;;;9.80;9.50;;;9.10;99.90;;;;;;5083302;28;20232;-79
2022/09/17 02:08:05;;;;;;;10.00;9.70;;;9.10;99.90;;;;;;5083868;28;20238;-80
2022/09/17 02:10:40;;;;;;;10.07;9.77;;;9.10;99.90;;;;;;5083645;28;20261;-79
2022/09/17 02:13:13;;;;;;;10.10;9.80;;;9.20;99.90;;;;;;5082898;28;20230;-79
2022/09/17 02:15:47;;;;;;;10.00;9.70;;;9.20;99.90;;;;;;5082856;28;20261;-79
2022/09/17 02:18:28;;;;;;;10.00;9.70;;;9.20;99.90;;;;;;5083797;28;20230;-79
2022/09/17 02:21:05;;;;;;;9.80;9.50;;;9.20;99.90;;;;;;5083420;28;20302;-79
2022/09/17 02:23:39;;;;;;;10.00;9.70;;;9.10;99.90;;;;;;5088826;28;20229;-79
2022/09/17 02:26:11;;;;;;;9.90;9.60;;;9.10;99.90;;;;;;5085910;28;20241;-79
2022/09/17 02:28:46;;;;;;;10.10;9.80;;;9.10;99.90;;;;;;5083223;28;20241;-79
2022/09/17 02:31:14;;;;;;;9.77;9.47;;;9.10;99.90;;;;;;5082670;28;20289;-79
2022/09/17 02:33:50;;;;;;;9.80;9.50;;;9.10;99.90;;;;;;5082783;28;20271;-79
2022/09/17 02:36:22;;;;;;;9.73;9.43;;;9.10;99.90;;;;;;5081598;28;20241;-80
2022/09/17 02:39:00;;;;;;;9.77;9.47;;;9.10;99.90;;;;;;5082334;28;20593;-79
2022/09/17 02:41:44;;;;;;;9.80;9.50;;;9.20;99.90;;;;;;5082722;28;20234;-79
2022/09/17 02:44:25;;;;;;;10.00;9.70;;;9.10;99.90;;;;;;5082716;28;20236;-79
2022/09/17 02:47:29;;;;;;;10.07;9.77;;;9.10;99.90;;;;;;5081759;28;20237;-79
2022/09/17 02:50:17;;;;;;;9.93;9.63;;;9.20;99.90;;;;;;5080100;28;20372;-79
2022/09/17 02:53:01;;;;;;;9.80;9.50;;;9.20;99.90;;;;;;5082074;28;20230;-80
2022/09/17 02:55:37;;;;;;;9.87;9.57;;;9.20;99.90;;;;;;5081644;28;20325;-79
2022/09/17 02:58:20;;;;;;;9.87;9.57;;;9.20;99.90;;;;;;5082240;28;20256;-79
2022/09/17 03:00:49;;;;;;;9.70;9.40;;;9.30;99.90;;;;;;5086132;28;20222;-79
2022/09/17 03:03:22;;;;;;;9.70;9.40;;;9.30;99.90;;;;;;5089355;28;20229;-79
2022/09/17 03:05:51;;;;;;;9.53;9.23;;;9.30;99.90;;;;;;5083796;28;20265;-81
2022/09/17 03:08:20;;;;;;;9.70;9.40;;;9.40;99.90;;;;;;5083885;28;20257;-80
2022/09/17 03:10:49;;;;;;;9.70;9.40;;;9.40;99.90;;;;;;5082825;28;20234;-79
2022/09/17 03:13:16;;;;;;;9.70;9.40;;;9.30;99.90;;;;;;5082730;28;20222;-79
2022/09/17 03:15:45;;;;;;;9.67;9.37;;;9.30;99.90;;;;;;5082230;28;20317;-79
2022/09/17 03:18:14;;;;;;;9.63;9.33;;;9.30;99.90;;;;;;5083133;28;20233;-80
2022/09/17 03:20:43;;;;;;;9.67;9.37;;;9.40;99.90;;;;;;5082950;28;20241;-79
2022/09/17 03:23:14;;;;;;;9.60;9.30;;;9.40;99.90;;;;;;5082287;28;20230;-79
2022/09/17 03:25:44;;;;;;;9.30;9.00;;;9.40;99.90;;;;;;5081631;28;20264;-79
2022/09/17 03:28:11;;;;;;;9.70;9.40;;;9.40;99.90;;;;;;5082045;28;20237;-79
2022/09/17 03:30:39;;;;;;;9.40;9.10;;;9.40;99.90;;;;;;5082043;28;20257;-79
2022/09/17 03:33:07;;;;;;;9.57;9.27;;;9.40;99.90;;;;;;5083048;28;20222;-79
2022/09/17 03:35:34;;;;;;;9.70;9.40;;;9.50;99.90;;;;;;5092310;28;20266;-79
2022/09/17 03:38:03;;;;;;;9.70;9.40;;;9.50;99.90;;;;;;5097836;28;20264;-80
2022/09/17 03:40:35;;;;;;;9.70;9.40;;;9.50;99.90;;;;;;5098962;28;20253;-78
2022/09/17 03:43:02;;;;;;;9.63;9.33;;;9.60;99.90;;;;;;5099250;28;20252;-77
2022/09/17 03:45:32;;;;;;;9.70;9.40;;;9.60;99.90;;;;;;5097511;28;20249;-80
2022/09/17 03:48:02;;;;;;;9.40;9.10;;;9.60;99.90;;;;;;5097676;28;20264;-79
2022/09/17 03:50:30;;;;;;;9.40;9.10;;;9.60;99.90;;;;;;5097592;28;20360;-79
2022/09/17 03:53:00;;;;;;;9.60;9.30;;;9.60;99.90;;;;;;5097264;28;20228;-78
2022/09/17 03:55:27;;;;;;;9.47;9.17;;;9.60;99.90;;;;;;5097291;28;20214;-79
2022/09/17 03:58:11;;;;;;;9.60;9.30;;;9.50;99.90;;;;;;5098200;28;20238;-79
2022/09/17 04:00:43;;;;;;;9.60;9.30;;;9.50;99.90;;;;;;5094412;28;20229;-78
2022/09/17 04:03:12;;;;;;;9.90;9.60;;;9.50;99.90;;;;;;5097442;28;20218;-79
2022/09/17 04:05:41;;;;;;;9.50;9.20;;;9.40;99.90;;;;;;5089454;28;20269;-79
2022/09/17 04:08:09;;;;;;;9.47;9.17;;;9.50;99.90;;;;;;5087623;28;20297;-79
2022/09/17 04:10:36;;;;;;;9.50;9.20;;;9.40;99.90;;;;;;5086716;28;20749;-79
2022/09/17 04:13:04;;;;;;;9.60;9.30;;;9.40;99.90;;;;;;5085597;28;20226;-79
2022/09/17 04:15:35;;;;;;;9.47;9.17;;;9.30;99.90;;;;;;5084283;28;20309;-80
2022/09/17 04:18:02;;;;;;;9.70;9.40;;;9.30;99.90;;;;;;5083743;28;20234;-79
2022/09/17 04:20:31;;;;;;;9.30;9.00;;;9.30;99.90;;;;;;5084182;28;20273;-79
2022/09/17 04:23:00;;;;;;;9.53;9.23;;;9.30;99.90;;;;;;5083692;28;20312;-79
2022/09/17 04:25:29;;;;;;;9.57;9.27;;;9.30;99.90;;;;;;5082636;28;20306;-79
2022/09/17 04:27:58;;;;;;;9.47;9.17;;;9.30;99.90;;;;;;5082710;28;20254;-80
2022/09/17 04:30:30;;;;;;;9.50;9.20;;;9.30;99.90;;;;;;5074502;28;20237;-80
2022/09/17 04:33:00;;;;;;;9.60;9.30;;;9.30;99.90;;;;;;5082087;28;20290;-80
2022/09/17 04:35:29;;;;;;;9.50;9.20;;;9.30;99.90;;;;;;5081802;28;20233;-80
2022/09/17 04:37:59;;;;;;;9.60;9.30;;;9.30;99.90;;;;;;5081868;28;20238;-80
2022/09/17 04:40:28;;;;;;;9.77;9.47;;;9.30;99.90;;;;;;5082167;28;20381;-80
2022/09/17 04:43:02;;;;;;;9.67;9.37;;;9.30;99.90;;;;;;5082091;28;20226;-80
2022/09/17 04:45:32;;;;;;;9.60;9.30;;;9.30;99.90;;;;;;5081061;28;20317;-80
2022/09/17 04:48:07;;;;;;;9.70;9.40;;;9.30;99.90;;;;;;5083274;28;20650;-80
2022/09/17 04:50:35;;;;;;;9.83;9.53;;;9.30;99.90;;;;;;5085573;28;20229;-80
2022/09/17 04:53:04;;;;;;;9.80;9.50;;;9.30;99.90;;;;;;5086248;28;20230;-80
2022/09/17 04:55:32;;;;;;;9.70;9.40;;;9.30;99.90;;;;;;5094310;28;20226;-80
2022/09/17 04:58:01;;;;;;;9.80;9.50;;;9.30;99.90;;;;;;5098499;28;20254;-80
2022/09/17 05:00:29;;;;;;;9.80;9.50;;;9.30;99.90;;;;;;5093598;28;20234;-79
2022/09/17 05:02:56;;;;;;;9.83;9.53;;;9.30;99.90;;;;;;5087619;28;20237;-80
2022/09/17 05:05:25;;;;;;;10.10;9.80;;;9.30;99.90;;;;;;5086794;28;20237;-80
2022/09/17 05:07:53;;;;;;;9.93;9.63;;;9.30;99.90;;;;;;5086631;28;20313;-80
2022/09/17 05:10:22;;;;;;;10.03;9.73;;;9.30;99.90;;;;;;5085598;28;20233;-79
2022/09/17 05:12:52;;;;;;;9.60;9.30;;;9.30;99.90;;;;;;5085207;28;20236;-79
2022/09/17 05:15:21;;;;;;;10.10;9.80;;;9.40;99.90;;;;;;5084438;28;20226;-80
2022/09/17 05:17:50;;;;;;;10.07;9.77;;;9.40;99.90;;;;;;5084303;28;20329;-79
2022/09/17 05:20:19;;;;;;;9.60;9.30;;;9.40;99.90;;;;;;5086317;28;20241;-80
2022/09/17 05:22:51;;;;;;;10.00;9.70;;;9.40;99.90;;;;;;5085732;28;20219;-79
2022/09/17 05:25:22;;;;;;;9.77;9.47;;;9.40;99.90;;;;;;5085680;28;20232;-79
2022/09/17 05:27:51;;;;;;;9.70;9.40;;;9.40;99.90;;;;;;5085938;28;20258;-80
2022/09/17 05:30:19;;;;;;;9.57;9.27;;;9.40;99.90;;;;;;5084980;28;20238;-79
2022/09/17 05:32:47;;;;;;;9.60;9.30;;;9.40;99.90;;;;;;5088925;28;20290;-79
2022/09/17 05:35:16;;;;;;;9.70;9.40;;;9.40;99.90;;;;;;5089212;28;20230;-81
2022/09/17 05:37:46;;;;;;;9.80;9.50;;;9.30;99.90;;;;;;5094327;28;20420;-81
2022/09/17 05:40:18;;;;;;;9.70;9.40;;;9.30;99.90;;;;;;5099839;28;20261;-81
2022/09/17 05:42:46;;;;;;;9.57;9.27;;;9.20;99.90;;;;;;5078242;28;20333;-82
2022/09/17 05:45:16;;;;;;;9.90;9.60;;;9.20;99.90;;;;;;5088317;28;20347;-82
2022/09/17 05:47:46;;;;;;;9.53;9.23;;;9.00;99.90;;;;;;5085692;28;20234;-82
2022/09/17 05:50:15;;;;;;;9.30;9.00;;;8.90;99.90;;;;;;5086489;28;20337;-82
2022/09/17 05:52:45;;;;;;;9.53;9.23;;;8.80;99.90;;;;;;5086439;28;20226;-82
2022/09/17 05:55:15;;;;;;;9.50;9.20;;;8.90;99.90;;;;;;5085626;28;20408;-82
2022/09/17 05:57:43;;;;;;;9.73;9.43;;;8.80;99.90;;;;;;5085781;28;20294;-82
2022/09/17 06:00:12;;;;;;;9.70;9.40;;;8.80;99.90;;;;;;5086353;28;20253;-82
2022/09/17 06:02:41;;;;;;;10.07;9.77;;;8.80;99.90;;;;;;5085339;28;20309;-82
2022/09/17 06:05:12;;;;;;;10.13;9.83;;;8.80;99.90;;;;;;5084003;28;20214;-82
2022/09/17 06:07:41;;;;;;;10.00;9.70;;;8.80;99.90;;;;;;5084871;28;20252;-82
2022/09/17 06:10:11;;;;;;;10.07;9.77;;;8.80;99.90;;;;;;5083671;28;20273;-82
2022/09/17 06:12:42;;;;;;;9.87;9.57;;;8.80;99.90;;;;;;5084898;28;20226;-82
2022/09/17 06:15:19;;;;;;;10.00;9.70;;;8.90;99.90;;;;;;5083265;28;20206;-82
2022/09/17 06:17:47;;;;;;;9.80;9.50;;;8.90;99.90;;;;;;5081855;28;20324;-83
2022/09/17 06:20:17;;;;;;;9.73;9.43;;;8.90;99.90;;;;;;5082581;28;20265;-82
2022/09/17 06:22:46;;;;;;;9.90;9.60;;;8.90;99.90;;;;;;5083368;28;20230;-82
2022/09/17 06:25:15;;;;;;;9.73;9.43;;;8.90;99.90;;;;;;5083063;28;20737;-84
2022/09/17 06:27:45;;;;;;;9.70;9.40;;;8.90;99.90;;;;;;5082442;28;20260;-82
2022/09/17 06:30:14;;;;;;;9.90;9.60;;;8.90;99.90;;;;;;5083436;28;20252;-83
2022/09/17 06:32:44;;;;;;;9.90;9.60;;;8.80;99.90;;;;;;5082918;28;20236;-83
2022/09/17 06:35:12;;;;;;;9.53;9.23;;;8.80;99.90;;;;;;5082180;28;20309;-82
2022/09/17 06:37:44;;;;;;;10.00;9.70;;;8.80;99.90;;;;;;5082743;28;20241;-82
2022/09/17 06:40:12;;;;;;;9.90;9.60;;;8.80;99.90;;;;;;5083052;28;20234;-83
2022/09/17 06:42:41;;;;;;;9.90;9.60;;;8.80;99.90;;;;;;5082906;28;20329;-82
2022/09/17 06:45:20;;;;;;;10.07;9.77;;;8.80;99.90;;;;;;5081673;28;20222;-82
2022/09/17 06:47:49;;;;;;;9.70;9.40;;;8.90;99.90;;;;;;5082394;28;20233;-83
2022/09/17 06:50:19;;;;;;;9.67;9.37;;;8.90;99.90;;;;;;5083280;28;21031;-83
2022/09/17 06:52:50;;;;;;;9.60;9.30;;;8.80;99.90;;;;;;5086197;28;20281;-81
2022/09/17 06:55:18;;;;;;;9.60;9.30;;;8.90;99.90;;;;;;5088039;28;20230;-82
2022/09/17 06:57:47;;;;;;;9.80;9.50;;;9.00;99.90;;;;;;5081481;28;20226;-82
2022/09/17 07:00:27;;;;;;;9.50;9.20;;;9.00;99.90;;;;;;5083146;28;20260;-83
2022/09/17 07:02:57;;;;;;;9.50;9.20;;;9.00;99.90;;;;;;5079753;28;20308;-83
2022/09/17 07:05:26;;;;;;;9.53;9.23;;;9.00;99.90;;;;;;5075183;28;20314;-83
2022/09/17 07:07:54;;;;;;;9.50;9.20;;;9.00;99.90;;;;;;5084408;28;20244;-83
2022/09/17 07:10:23;;;;;;;9.50;9.20;;;9.00;99.90;;;;;;5082327;28;20301;-83
2022/09/17 07:12:53;;;;;;;9.70;9.40;;;9.00;99.90;;;;;;5081825;28;20226;-82
2022/09/17 07:15:31;;;;;;;9.70;9.40;;;9.00;99.90;;;;;;5081886;28;20233;-83
2022/09/17 07:18:01;;;;;;;9.93;9.63;;;9.00;99.90;;;;;;5082353;28;20238;-83
2022/09/17 07:20:30;;;;;;;10.07;9.77;;;9.00;99.90;;;;;;5082777;28;20230;-83
2022/09/17 07:22:59;;;;;;;9.70;9.40;;;9.00;99.90;;;;;;5082638;28;20282;-84
2022/09/17 07:25:28;;;;;;;10.00;9.70;;;9.00;99.90;;;;;;5061260;28;20238;-83
2022/09/17 07:27:59;;;;;;;9.60;9.30;;;9.00;99.90;;;;;;5077591;28;20265;-83
2022/09/17 07:30:39;;;;;;;9.80;9.50;;;9.00;99.90;;;;;;5081937;28;20244;-83
2022/09/17 07:33:07;;;;;;;9.50;9.20;;;9.00;99.90;;;;;;5082428;28;20301;-83
2022/09/17 07:35:37;;;;;;;9.70;9.40;;;9.00;99.90;;;;;;5082094;28;20236;-82
2022/09/17 07:38:06;;;;;;;9.93;9.63;;;9.00;99.90;;;;;;5082982;28;20298;-82
2022/09/17 07:40:34;;;;;;;9.70;9.40;;;9.00;99.90;;;;;;5092340;28;20989;-82
2022/09/17 07:43:05;;;;;;;10.00;9.70;;;9.10;99.90;;;;;;5091530;28;20313;-82
2022/09/17 07:45:36;;;;;;;9.77;9.47;;;9.10;99.90;;;;;;5082924;28;20313;-82
2022/09/17 07:48:04;;;;;;;9.80;9.50;;;9.10;99.90;;;;;;5083939;28;20248;-82
2022/09/17 07:50:34;;;;;;;9.70;9.40;;;9.20;99.90;;;;;;5083898;28;20261;-82
2022/09/17 07:53:03;;;;;;;9.53;9.23;;;9.20;99.90;;;;;;5082774;28;20233;-82
2022/09/17 07:55:32;;;;;;;9.73;9.43;;;9.20;99.90;;;;;;5082646;28;20222;-83
2022/09/17 07:58:02;;;;;;;9.83;9.53;;;9.20;99.90;;;;;;5082632;28;20441;-83
2022/09/17 08:00:33;;;;;;;9.60;9.30;;;9.30;99.90;;;;;;5082656;28;20438;-83
2022/09/17 08:03:03;;;;;;;9.53;9.23;;;9.30;99.90;;;;;;5081806;28;20286;-82
2022/09/17 08:05:33;;;;;;;9.40;9.10;;;9.40;99.90;;;;;;5084942;28;20214;-82
2022/09/17 08:08:02;;;;;;;9.73;9.43;;;9.40;99.90;;;;;;5090778;28;20241;-83
2022/09/17 08:10:31;;;;;;;9.57;9.27;;;9.40;99.90;;;;;;5087706;28;21031;-83
2022/09/17 08:12:59;;;;;;;9.80;9.50;;;9.40;99.90;;;;;;5065918;28;20233;-86
2022/09/17 08:15:28;;;;;;;9.47;9.17;;;9.40;99.90;;;;;;5080497;28;20226;-83
2022/09/17 08:17:58;;;;;;;9.40;9.10;;;9.40;99.90;;;;;;5101843;28;20233;-82
2022/09/17 08:20:29;;;;;;;9.60;9.30;;;9.40;99.90;;;;;;5103104;28;20225;-82
2022/09/17 08:23:07;;;;;;;9.50;9.20;;;9.40;99.90;;;;;;5084678;28;20234;-85
2022/09/17 08:25:34;;;;;;;9.60;9.30;;;9.40;99.90;;;;;;5082058;28;20224;-88
2022/09/17 08:28:03;;;;;;;10.00;9.70;;;9.40;99.90;;;;;;5082546;28;20337;-84
2022/09/17 08:30:54;;;;;;;9.90;9.60;;;9.40;99.90;;;;;;5083562;28;20237;-85
2022/09/17 08:33:22;;;;;;;9.70;9.40;;;9.40;99.90;;;;;;5084401;28;20253;-81
2022/09/17 08:36:01;;;;;;;9.70;9.40;;;9.50;99.90;;;;;;5083737;28;20313;-83
2022/09/17 08:38:31;;;;;;;9.70;9.40;;;9.50;99.90;;;;;;5084154;28;20233;-81
2022/09/17 08:41:25;;;;;;;9.30;9.00;;;9.50;99.90;;;;;;5081918;28;20236;-81
2022/09/17 08:44:04;;;;;;;9.30;9.00;;;9.60;99.90;;;;;;5080579;28;20257;-83
2022/09/17 08:46:42;;;;;;;9.17;8.87;;;9.60;99.90;;;;;;5083640;28;20222;-82
2022/09/17 08:49:20;;;;;;;9.50;9.20;;;9.70;99.90;;;;;;5083613;28;20240;-81
2022/09/17 08:52:14;;;;;;;8.90;8.60;;;9.70;99.90;;;;;;5085534;28;20249;-81
2022/09/17 08:54:52;;;;;;;8.90;8.60;;;9.70;99.90;;;;;;5064068;28;20231;-82
2022/09/17 08:57:31;;;;;;;9.30;9.00;;;9.80;99.90;;;;;;5062171;28;20234;-82
2022/09/17 09:00:09;;;;;;;9.60;9.30;;;9.90;99.90;;;;;;5063388;28;20265;-82
2022/09/17 09:02:56;;;;;;;9.13;8.83;;;10.00;99.90;;;;;;5064803;28;20294;-82
2022/09/17 09:05:35;;;;;;;9.00;8.70;;;10.10;99.90;;;;;;5063444;28;20226;-81
2022/09/17 09:08:13;;;;;;;8.60;8.40;;;10.20;99.90;;;;;;5064164;28;20234;-82
2022/09/17 09:10:51;;;;;;;8.90;8.60;;;10.30;99.90;;;;;;5071645;28;20234;-84
2022/09/17 09:13:23;;;;;;;8.90;8.63;;;10.40;99.90;;;;;;5067306;28;20269;-83
2022/09/17 09:15:59;;;;;;;8.90;8.63;;;10.50;99.90;;;;;;5083571;28;20229;-86
2022/09/17 09:18:30;;;;;;;9.13;8.83;;;10.60;99.90;;;;;;5083512;28;20225;-83
2022/09/17 09:21:15;;;;;;;9.13;8.83;;;10.90;99.90;;;;;;5084409;28;20242;-84
2022/09/17 09:23:55;;;;;;;9.13;8.83;;;11.10;99.90;;;;;;5084929;28;20252;-83
2022/09/17 09:26:40;;;;;;;9.10;8.80;;;11.20;99.90;;;;;;5084724;28;20236;-84
2022/09/17 09:29:20;;;;;;;8.70;8.50;;;11.20;99.90;;;;;;5083813;28;20214;-83
2022/09/17 09:32:07;;;;;;;9.10;8.80;;;11.20;99.90;;;;;;5084502;28;20241;-84
2022/09/17 09:34:36;;;;;;;8.73;8.53;;;11.20;99.90;;;;;;5083102;28;20260;-82
2022/09/17 09:37:17;;;;;;;9.17;8.87;;;11.10;99.90;;;;;;5086260;28;20268;-82
2022/09/17 09:39:53;;;;;;;8.80;8.60;;;11.10;99.90;;;;;;5083785;28;20234;-82
2022/09/17 09:42:31;;;;;;;9.30;9.00;;;11.00;99.90;;;;;;5088315;28;20260;-82
2022/09/17 09:45:03;;;;;;;8.77;8.57;;;10.90;99.90;;;;;;5088042;28;20234;-82
2022/09/17 09:47:49;;;;;;;8.97;8.73;;;11.00;99.90;;;;;;5090434;28;20226;-83
2022/09/17 09:50:37;;;;;;;8.80;8.60;;;11.00;99.90;;;;;;5099215;28;20226;-82
2022/09/17 09:53:22;;;;;;;8.43;8.23;;;11.00;99.90;;;;;;5099911;28;20260;-82
2022/09/17 09:56:08;;;;;;;8.70;8.50;;;11.00;99.90;;;;;;5100382;28;20229;-82
2022/09/17 09:58:38;;;;;;;9.10;8.80;;;11.10;99.90;;;;;;5098449;28;20234;-83
2022/09/17 10:01:19;;;;;;;8.77;8.57;;;11.10;99.90;;;;;;5095786;28;20230;-84
2022/09/17 10:03:50;;;;;;;9.00;8.70;;;11.30;99.90;;;;;;5092430;28;20252;-81
2022/09/17 10:06:19;;;;;;;9.20;8.90;;;11.60;99.90;;;;;;5092984;28;20222;-80
2022/09/17 10:09:13;;;;;;;9.40;9.10;;;11.80;99.90;;;;;;5091475;28;20234;-81
2022/09/17 10:11:43;;;;;;;9.33;9.03;;;12.00;99.90;;;;;;5090118;28;20234;-80
2022/09/17 10:14:24;;;;;;;9.47;9.17;;;12.20;99.90;;;;;;5088268;28;20237;-81
2022/09/17 10:17:20;;;;;;;9.80;9.50;;;12.50;99.90;;;;;;5089984;28;20264;-82
2022/09/17 10:20:16;;;;;;;9.47;9.17;;;12.90;99.90;;;;;;5090105;28;20249;-82
2022/09/17 10:22:46;;;;;;;9.37;9.07;;;13.00;99.90;;;;;;5073359;28;20210;-82
2022/09/17 10:25:31;;;;;;;10.37;10.07;;;13.10;99.90;;;;;;5074984;28;20285;-82
2022/09/17 10:28:12;;;;;;;10.10;9.80;;;13.00;99.90;;;;;;5064913;28;20241;-82
2022/09/17 10:30:56;;;;;;;10.50;10.20;;;13.20;99.90;;;;;;5076632;28;20230;-84
2022/09/17 10:33:28;;;;;;;10.40;10.10;;;13.70;99.90;;;;;;5079060;28;20222;-85
2022/09/17 10:36:03;;;;;;;10.50;10.20;;;14.00;99.90;;;;;;5081330;28;20324;-82
2022/09/17 10:38:37;;;;;;;9.63;9.33;;;14.00;99.90;;;;;;5061297;28;20291;-84
2022/09/17 10:41:23;;;;;;;9.87;9.57;;;14.00;99.90;;;;;;5062221;28;20236;-83
2022/09/17 10:43:55;;;;;;;9.70;9.40;;;14.00;99.90;;;;;;5073305;28;20237;-84
2022/09/17 10:46:32;;;;;;;9.70;9.40;;;13.60;99.90;;;;;;5078534;28;20267;-84
2022/09/17 10:49:11;;;;;;;9.57;9.27;;;12.90;99.90;;;;;;5084721;28;20265;-83
2022/09/17 10:51:39;;;;;;;9.90;9.60;;;12.50;99.90;;;;;;5089333;28;20232;-86
2022/09/17 10:55:00;;;;;;;10.10;9.80;;;12.40;99.90;;;;;;5095402;28;20270;-82
2022/09/17 10:57:48;;;;;;;10.10;9.80;;;12.90;99.90;;;;;;5057107;28;20220;-79
2022/09/17 11:00:22;;;;;;;9.80;9.50;;;13.50;99.90;;;;;;5098997;28;20254;-77
2022/09/17 11:03:48;;;;;;;9.40;9.10;;;13.50;99.90;;;;;;5100301;28;20229;-78
2022/09/17 11:06:52;;;;;;;9.70;9.40;;;13.70;99.90;;;;;;5100395;28;20244;-80
2022/09/17 11:09:39;;;;;;;9.70;9.40;;;13.50;99.90;;;;;;5100684;28;20228;-83
2022/09/17 11:12:35;;;;;;;9.80;9.50;;;13.50;99.90;;;;;;5094684;28;20242;-80
2022/09/17 11:15:24;;;;;;;9.93;9.63;;;13.80;99.90;;;;;;5093731;28;20218;-82
2022/09/17 11:18:42;;;;;;;10.50;10.20;;;14.50;99.90;;;;;;5099537;28;20214;-81
2022/09/17 11:21:31;;;;;;;10.75;10.45;;;15.20;99.90;;;;;;5099993;28;20226;-82
2022/09/17 11:24:47;;;;;;;10.50;10.20;;;15.50;99.90;;;;;;5100813;28;20289;-84
2022/09/17 11:27:34;;;;;;;10.30;10.00;;;14.80;99.90;;;;;;5100460;28;20226;-83
2022/09/17 11:30:19;;;;;;;10.60;10.30;;;14.90;99.90;;;;;;5100293;28;20290;-82
2022/09/17 11:33:24;;;;;;;11.00;10.70;;;15.20;99.90;;;;;;5095301;28;20261;-83
2022/09/17 11:36:04;;;;;;;10.68;10.38;;;15.70;99.90;;;;;;5098327;28;20225;-84
2022/09/17 11:38:42;;;;;;;10.77;10.48;;;16.00;99.90;;;;;;5113558;28;20236;-81
2022/09/17 11:41:18;;;;;;;10.87;10.57;;;15.20;99.90;;;;;;5112789;28;20225;-82
2022/09/17 11:43:57;;;;;;;10.70;10.40;;;14.50;99.90;;;;;;5112324;28;20217;-82
2022/09/17 11:46:34;;;;;;;10.87;10.57;;;14.50;99.90;;;;;;5108797;28;20324;-80
2022/09/17 11:49:20;;;;;;;11.10;10.80;;;14.50;99.90;;;;;;5107609;28;20235;-83
2022/09/17 11:51:53;;;;;;;10.80;10.50;;;14.60;99.90;;;;;;5108324;28;20221;-82
2022/09/17 11:54:29;;;;;;;11.07;10.77;;;14.90;99.90;;;;;;5098038;28;20281;-81
2022/09/17 11:57:07;;;;;;;10.80;10.50;;;15.30;99.90;;;;;;5084710;28;20301;-84
2022/09/17 11:59:46;;;;;;;10.83;10.53;;;15.60;99.90;;;;;;5085252;28;20226;-84
2022/09/17 12:02:50;;;;;;;10.50;10.20;;;15.60;99.90;;;;;;5083628;28;20309;-84
2022/09/17 12:05:28;;;;;;;10.30;10.00;;;15.30;99.90;;;;;;5080873;28;20324;-82
2022/09/17 12:08:04;;;;;;;10.43;10.13;;;14.40;99.90;;;;;;5085401;28;20264;-82
2022/09/17 12:10:46;;;;;;;10.27;9.97;;;14.00;99.90;;;;;;5085856;28;20237;-83
2022/09/17 12:16:18;;;;;;;9.80;9.50;;;13.60;99.90;;;;;;5097458;28;20229;-81
2022/09/17 12:19:03;;;;;;;9.90;9.60;;;13.50;99.90;;;;;;5099909;28;20214;-78
2022/09/17 12:21:38;;;;;;;9.80;9.50;;;13.40;99.90;;;;;;5099695;28;20313;-79
2022/09/17 12:24:16;;;;;;;10.00;9.70;;;13.20;99.90;;;;;;5097338;28;20222;-81
2022/09/17 12:27:00;;;;;;;10.40;10.10;;;13.30;99.90;;;;;;5087182;28;20226;-80
2022/09/17 12:29:58;;;;;;;10.80;10.50;;;13.60;99.90;;;;;;5083185;28;20228;-82
2022/09/17 12:32:55;;;;;;;10.50;10.20;;;14.20;99.90;;;;;;5083124;28;20324;-82
2022/09/17 12:35:53;;;;;;;10.20;9.90;;;14.80;99.90;;;;;;5081731;28;20222;-82
2022/09/17 12:38:48;;;;;;;10.65;10.35;;;14.90;99.90;;;;;;5081773;28;20230;-82
2022/09/17 12:41:33;;;;;;;10.50;10.20;;;15.40;99.90;;;;;;5082369;28;20226;-81
2022/09/17 12:44:29;;;;;;;10.80;10.50;;;15.70;99.90;;;;;;5082195;28;20236;-82
2022/09/17 12:47:24;;;;;;;10.35;10.05;;;15.50;99.90;;;;;;5082235;28;20368;-82
2022/09/17 12:50:20;;;;;;;9.90;9.60;;;14.80;99.90;;;;;;5086311;28;20236;-85
2022/09/17 12:53:07;;;;;;;10.13;9.83;;;14.50;99.90;;;;;;5085205;28;20238;-83
2022/09/17 12:55:54;;;;;;;10.03;9.73;;;14.20;99.90;;;;;;5083443;28;20254;-83
2022/09/17 12:58:42;;;;;;;10.20;9.90;;;14.10;99.90;;;;;;5083610;28;20222;-83
2022/09/17 13:01:20;;;;;;;10.03;9.73;;;14.00;99.90;;;;;;5081185;28;20340;-82
2022/09/17 13:03:52;;;;;;;10.10;9.80;;;14.20;99.90;;;;;;5081791;28;20237;-83
2022/09/17 13:07:04;;;;;;;10.40;10.10;;;14.40;99.90;;;;;;5082609;28;20226;-82
2022/09/17 13:10:00;;;;;;;10.10;9.80;;;14.30;99.90;;;;;;5096105;28;20233;-83
2022/09/17 13:12:37;;;;;;;10.50;10.20;;;14.20;99.90;;;;;;5096558;28;20244;-83
2022/09/17 13:15:40;;;;;;;10.27;9.97;;;13.90;99.90;;;;;;5092793;28;20251;-82
2022/09/17 13:18:20;;;;;;;10.40;10.10;;;13.80;99.90;;;;;;5090966;28;20289;-82
2022/09/17 13:21:08;;;;;;;10.30;10.00;;;13.90;99.90;;;;;;5088844;28;20244;-83
2022/09/17 13:23:44;;;;;;;10.33;10.03;;;14.00;99.90;;;;;;5089334;28;20317;-82
2022/09/17 13:26:15;;;;;;;10.40;10.10;;;14.00;99.90;;;;;;5098206;28;20252;-82
2022/09/17 13:28:53;;;;;;;10.17;9.87;;;14.20;99.90;;;;;;5103444;28;20269;-82
2022/09/17 13:31:22;;;;;;;10.30;10.00;;;13.90;99.90;;;;;;5103802;28;20209;-83
2022/09/17 13:33:59;;;;;;;9.93;9.63;;;12.90;99.90;;;;;;5102201;28;20282;-84
2022/09/17 13:36:48;;;;;;;9.77;9.47;;;12.10;99.90;;;;;;5101573;28;20293;-84
2022/09/17 13:39:43;;;;;;;9.70;9.40;;;11.20;99.90;;;;;;5090050;28;20273;-84